Time;durP1;ratioP1;P1;durP2;ratioP2;P2;SDS_P1;SDS_P2;PMS_P1;PMS_P2;Temp;Humidity;BMP_temperature;BMP_pressure;BME280_temperature;BME280_humidity;BME280_pressure;Samples;Min_cycle;Max_cycle;Signal;HPM_P1;HPM_P2
2021/08/22 00:02:38;;;;;;;10.95;6.13;;;19.30;99.90;;;;;;6178241;28;20026;-80
2021/08/22 00:05:38;;;;;;;14.93;7.13;;;19.20;99.90;;;;;;6178249;28;20090;-80
2021/08/22 00:08:39;;;;;;;8.50;6.40;;;19.20;99.90;;;;;;6178302;28;20050;-80
2021/08/22 00:11:40;;;;;;;7.43;6.57;;;;;;;;;;6160483;28;20023;-82
2021/08/22 00:14:41;;;;;;;7.72;6.82;;;19.00;99.90;;;;;;6178007;28;20073;-80
2021/08/22 00:17:41;;;;;;;8.35;6.78;;;18.80;99.90;;;;;;6177635;28;20512;-83
2021/08/22 00:20:42;;;;;;;9.20;6.85;;;18.70;99.90;;;;;;6160580;28;20150;-81
2021/08/22 00:23:43;;;;;;;9.55;6.28;;;18.70;99.90;;;;;;6160652;28;20023;-84
2021/08/22 00:26:43;;;;;;;12.52;7.82;;;18.60;99.90;;;;;;6177899;28;20034;-81
2021/08/22 00:29:44;;;;;;;10.75;6.93;;;18.50;99.90;;;;;;6177487;28;20101;-82
2021/08/22 00:32:44;;;;;;;12.20;7.28;;;18.50;99.90;;;;;;6177274;28;20445;-79
2021/08/22 00:35:45;;;;;;;8.73;6.93;;;18.50;99.90;;;;;;6178015;28;20027;-80
2021/08/22 00:38:47;;;;;;;9.25;7.05;;;18.30;99.90;;;;;;6177059;28;20054;-80
2021/08/22 00:41:48;;;;;;;7.10;6.40;;;18.30;99.90;;;;;;6160640;28;20030;-80
2021/08/22 00:44:48;;;;;;;7.97;6.53;;;18.50;99.90;;;;;;6177340;28;20034;-79
2021/08/22 00:47:50;;;;;;;8.40;6.30;;;18.20;99.90;;;;;;6177127;28;20023;-80
2021/08/22 00:50:52;;;;;;;8.13;6.88;;;18.30;99.90;;;;;;6177222;28;20027;-80
2021/08/22 00:53:53;;;;;;;8.27;7.20;;;18.40;99.90;;;;;;6177466;28;20015;-79
2021/08/22 00:56:54;;;;;;;10.15;7.57;;;18.30;99.90;;;;;;6159445;28;20058;-79
2021/08/22 00:59:55;;;;;;;8.10;6.30;;;;;;;;;;6159943;28;20062;-82
2021/08/22 01:02:59;;;;;;;8.35;7.25;;;18.10;99.90;;;;;;6160084;28;20053;-82
2021/08/22 01:06:21;;;;;;;7.85;7.05;;;18.20;99.90;;;;;;6159353;28;20026;-80
2021/08/22 01:09:45;;;;;;;13.07;7.03;;;18.70;99.90;;;;;;6176621;28;20066;-79
2021/08/22 01:12:47;;;;;;;9.73;7.60;;;18.30;99.90;;;;;;6134293;28;20027;-80
2021/08/22 01:15:50;;;;;;;9.00;6.20;;;18.40;99.90;;;;;;6159887;28;20034;-79
2021/08/22 01:18:51;;;;;;;9.13;6.35;;;18.50;99.90;;;;;;6159389;28;20026;-81
2021/08/22 01:21:51;;;;;;;6.78;6.07;;;18.40;99.90;;;;;;6143204;28;20066;-82
2021/08/22 01:24:52;;;;;;;9.20;6.78;;;18.40;99.90;;;;;;6158935;28;20736;-80
2021/08/22 01:27:53;;;;;;;6.90;5.95;;;18.50;99.90;;;;;;6176673;28;20110;-81
2021/08/22 01:30:54;;;;;;;8.32;7.18;;;;;;;;;;6158691;28;20022;-81
2021/08/22 01:33:56;;;;;;;7.75;6.68;;;18.10;99.90;;;;;;6159013;28;20535;-80
2021/08/22 01:36:57;;;;;;;12.88;8.00;;;18.30;99.90;;;;;;6159191;28;20050;-80
2021/08/22 01:39:58;;;;;;;7.47;6.55;;;18.20;99.90;;;;;;6158877;28;20057;-82
2021/08/22 01:42:58;;;;;;;8.95;6.90;;;18.30;99.90;;;;;;6158814;28;20050;-82
2021/08/22 01:45:59;;;;;;;7.68;6.13;;;18.10;99.90;;;;;;6158582;28;20034;-82
2021/08/22 01:49:00;;;;;;;8.13;6.05;;;17.80;99.90;;;;;;6158526;28;20112;-82
2021/08/22 01:52:01;;;;;;;7.15;6.07;;;17.80;99.90;;;;;;6158206;28;20031;-82
2021/08/22 01:55:03;;;;;;;10.73;6.72;;;18.00;99.90;;;;;;6158727;28;20046;-81
2021/08/22 01:58:04;;;;;;;8.18;7.15;;;17.90;99.90;;;;;;6142194;28;20023;-81
2021/08/22 02:01:04;;;;;;;9.55;6.68;;;17.90;99.90;;;;;;6158373;28;20129;-82
2021/08/22 02:04:26;;;;;;;9.32;6.93;;;17.80;99.90;;;;;;6158111;28;20018;-80
2021/08/22 02:07:33;;;;;;;8.35;7.43;;;18.20;99.90;;;;;;6158908;28;20057;-81
2021/08/22 02:10:34;;;;;;;8.27;7.32;;;18.00;99.90;;;;;;6142359;28;20026;-81
2021/08/22 02:13:36;;;;;;;10.07;7.18;;;18.00;99.90;;;;;;6158040;28;20413;-82
2021/08/22 02:16:37;;;;;;;9.40;7.25;;;18.10;99.90;;;;;;6175632;28;20113;-82
2021/08/22 02:19:37;;;;;;;7.85;6.47;;;18.10;99.90;;;;;;6158051;28;20081;-79
2021/08/22 02:22:41;;;;;;;8.35;6.88;;;18.00;99.90;;;;;;6157880;28;20427;-82
2021/08/22 02:25:43;;;;;;;6.97;6.18;;;18.10;99.90;;;;;;6158417;28;20500;-82
2021/08/22 02:28:50;;;;;;;7.38;6.60;;;18.10;99.90;;;;;;6158215;28;20034;-80
2021/08/22 02:31:51;;;;;;;7.63;6.75;;;18.20;99.90;;;;;;6157702;28;20125;-81
2021/08/22 02:34:52;;;;;;;7.80;7.00;;;18.30;99.90;;;;;;6174781;28;20053;-80
2021/08/22 02:37:52;;;;;;;7.50;6.70;;;18.20;99.90;;;;;;6175054;28;20085;-80
2021/08/22 02:40:53;;;;;;;8.90;6.05;;;18.10;99.90;;;;;;6157351;28;20045;-82
2021/08/22 02:43:54;;;;;;;6.82;5.57;;;18.10;99.90;;;;;;6174560;28;20027;-80
2021/08/22 02:46:54;;;;;;;11.18;6.35;;;17.80;99.90;;;;;;6175011;28;20433;-80
2021/08/22 02:49:55;;;;;;;7.25;6.50;;;17.90;99.90;;;;;;6174600;28;20453;-83
2021/08/22 02:52:55;;;;;;;6.80;6.10;;;18.00;99.90;;;;;;6141440;28;20034;-81
2021/08/22 02:55:56;;;;;;;8.05;6.60;;;17.90;99.90;;;;;;6157522;28;20575;-82
2021/08/22 02:58:57;;;;;;;7.93;6.07;;;17.70;99.90;;;;;;6157285;28;20042;-81
2021/08/22 03:01:57;;;;;;;7.55;6.25;;;17.80;99.90;;;;;;6157199;28;20037;-79
2021/08/22 03:04:58;;;;;;;6.85;6.15;;;17.60;99.90;;;;;;6174982;28;20054;-80
2021/08/22 03:07:59;;;;;;;8.05;6.38;;;17.60;99.90;;;;;;6174497;28;20030;-82
2021/08/22 03:10:59;;;;;;;7.55;6.50;;;17.60;99.90;;;;;;6174498;28;20420;-83
2021/08/22 03:14:00;;;;;;;6.45;5.50;;;17.60;99.90;;;;;;6174496;28;20027;-82
2021/08/22 03:17:00;;;;;;;6.50;5.78;;;17.60;99.90;;;;;;6174545;28;20086;-80
2021/08/22 03:20:03;;;;;;;7.50;5.90;;;17.50;99.90;;;;;;6161369;28;20039;-80
2021/08/22 03:23:04;;;;;;;7.32;5.60;;;17.80;99.90;;;;;;6179081;28;20544;-79
2021/08/22 03:26:04;;;;;;;9.10;5.88;;;17.50;99.90;;;;;;6179393;28;20019;-81
2021/08/22 03:29:06;;;;;;;6.97;5.68;;;17.60;99.90;;;;;;6178833;28;20031;-81
2021/08/22 03:32:07;;;;;;;7.45;6.15;;;17.40;99.90;;;;;;6179138;28;20027;-80
2021/08/22 03:35:07;;;;;;;7.07;5.43;;;17.30;99.90;;;;;;6161837;28;20556;-80
2021/08/22 03:38:08;;;;;;;9.10;5.93;;;17.40;99.90;;;;;;6179322;28;20049;-82
2021/08/22 03:41:09;;;;;;;7.85;6.10;;;17.30;99.90;;;;;;6178621;28;20089;-79
2021/08/22 03:44:09;;;;;;;7.95;6.35;;;17.30;99.90;;;;;;6178860;28;20023;-79
2021/08/22 03:47:10;;;;;;;7.88;5.93;;;17.20;99.90;;;;;;6161314;28;20026;-79
2021/08/22 03:50:10;;;;;;;9.23;6.13;;;17.20;99.90;;;;;;6144974;28;20031;-81
2021/08/22 03:53:11;;;;;;;8.07;5.60;;;17.20;99.90;;;;;;6178461;28;20468;-81
2021/08/22 03:56:11;;;;;;;7.45;5.93;;;17.20;99.90;;;;;;6178578;28;20023;-80
2021/08/22 03:59:12;;;;;;;6.30;5.38;;;;;;;;;;6145105;28;20038;-78
2021/08/22 04:02:13;;;;;;;7.25;6.32;;;17.20;99.90;;;;;;6178471;28;20026;-80
2021/08/22 04:05:14;;;;;;;5.85;5.25;;;17.20;99.90;;;;;;6178049;28;20023;-81
2021/08/22 04:08:15;;;;;;;8.30;5.65;;;17.20;99.90;;;;;;6178304;28;20109;-81
2021/08/22 04:11:16;;;;;;;8.05;6.45;;;17.20;99.90;;;;;;6178077;28;20097;-80
2021/08/22 04:14:16;;;;;;;6.18;5.50;;;17.20;99.90;;;;;;6160787;28;20845;-80
2021/08/22 04:17:17;;;;;;;6.25;5.00;;;17.20;99.90;;;;;;6177811;28;20027;-80
2021/08/22 04:20:17;;;;;;;7.05;6.13;;;17.10;99.90;;;;;;6160436;28;20053;-79
2021/08/22 04:23:18;;;;;;;6.28;5.68;;;17.10;99.90;;;;;;6160628;28;20019;-80
2021/08/22 04:26:19;;;;;;;9.32;5.85;;;17.20;99.90;;;;;;6177976;28;20454;-80
2021/08/22 04:29:19;;;;;;;8.23;5.97;;;17.20;99.90;;;;;;6159783;28;20368;-79
2021/08/22 04:32:21;;;;;;;7.10;6.18;;;17.10;99.90;;;;;;6177532;28;20046;-80
2021/08/22 04:35:22;;;;;;;9.02;6.13;;;17.10;99.90;;;;;;6177664;28;20029;-80
2021/08/22 04:38:22;;;;;;;7.25;6.22;;;17.40;99.90;;;;;;6176991;28;20042;-80
2021/08/22 04:41:23;;;;;;;6.93;5.50;;;;;;;;;;6177218;28;20042;-79
2021/08/22 04:44:24;;;;;;;8.05;5.38;;;17.10;99.90;;;;;;6177274;28;20026;-82
2021/08/22 04:47:25;;;;;;;6.60;5.65;;;;;;;;;;6177486;28;20462;-79
2021/08/22 04:50:27;;;;;;;6.03;5.40;;;17.20;99.90;;;;;;6177109;28;20023;-80
2021/08/22 04:53:28;;;;;;;8.30;5.40;;;17.20;99.90;;;;;;6160042;28;20029;-79
2021/08/22 04:56:29;;;;;;;6.60;5.30;;;;;;;;;;6159882;28;20035;-81
2021/08/22 04:59:29;;;;;;;6.88;5.88;;;17.30;99.90;;;;;;6177126;28;20373;-81
2021/08/22 05:02:30;;;;;;;7.35;5.60;;;17.30;99.90;;;;;;6160278;28;20026;-80
2021/08/22 05:05:30;;;;;;;7.40;5.63;;;17.20;99.90;;;;;;6176820;28;20027;-82
2021/08/22 05:08:31;;;;;;;5.93;5.32;;;17.20;99.90;;;;;;6176815;28;20023;-81
2021/08/22 05:11:33;;;;;;;6.22;5.63;;;17.50;99.90;;;;;;6176870;28;20022;-80
2021/08/22 05:14:34;;;;;;;8.00;6.03;;;17.30;99.90;;;;;;6159637;28;20023;-81
2021/08/22 05:17:35;;;;;;;6.22;5.43;;;17.30;99.90;;;;;;6176890;28;20031;-79
2021/08/22 05:20:35;;;;;;;5.60;5.00;;;17.40;99.90;;;;;;6159329;28;20066;-83
2021/08/22 05:23:36;;;;;;;7.13;5.40;;;;;;;;;;6159146;28;20027;-81
2021/08/22 05:26:37;;;;;;;7.35;5.63;;;;;;;;;;6176907;28;20456;-79
2021/08/22 05:29:38;;;;;;;6.35;5.40;;;17.30;99.90;;;;;;6176428;28;20440;-82
2021/08/22 05:32:38;;;;;;;7.55;5.43;;;16.60;99.90;;;;;;6158714;28;20027;-78
2021/08/22 05:35:39;;;;;;;6.55;5.22;;;17.30;99.90;;;;;;6176139;28;20014;-81
2021/08/22 05:38:39;;;;;;;5.63;5.10;;;17.60;99.90;;;;;;6158733;28;20054;-81
2021/08/22 05:41:40;;;;;;;6.88;5.10;;;17.50;99.90;;;;;;6158739;28;20104;-79
2021/08/22 05:44:41;;;;;;;7.90;5.78;;;17.60;99.90;;;;;;6158526;28;20138;-81
2021/08/22 05:47:41;;;;;;;9.77;5.18;;;17.50;99.90;;;;;;6175814;28;20063;-82
2021/08/22 05:50:42;;;;;;;7.07;5.25;;;17.60;99.90;;;;;;6175623;28;20026;-81
2021/08/22 05:53:43;;;;;;;7.30;5.70;;;17.70;99.90;;;;;;6176021;28;20027;-79
2021/08/22 05:56:44;;;;;;;8.45;5.30;;;17.60;99.90;;;;;;6158647;28;20030;-81
2021/08/22 05:59:44;;;;;;;7.13;5.70;;;17.60;99.90;;;;;;6175378;28;20074;-79
2021/08/22 06:02:45;;;;;;;7.03;5.32;;;17.60;99.90;;;;;;6158474;28;20023;-80
2021/08/22 06:05:46;;;;;;;7.40;6.57;;;17.70;99.90;;;;;;6158103;28;20408;-80
2021/08/22 06:08:47;;;;;;;7.95;5.80;;;17.70;99.90;;;;;;6142326;28;20041;-79
2021/08/22 06:11:47;;;;;;;7.32;5.97;;;17.80;99.90;;;;;;6175202;28;20031;-78
2021/08/22 06:14:48;;;;;;;7.90;6.28;;;17.90;99.90;;;;;;6175430;28;20046;-79
2021/08/22 06:17:48;;;;;;;8.10;6.22;;;18.10;99.90;;;;;;6158013;28;20054;-79
2021/08/22 06:20:49;;;;;;;7.95;5.78;;;18.00;99.90;;;;;;6158074;28;20046;-80
2021/08/22 06:23:50;;;;;;;7.53;5.75;;;18.10;99.90;;;;;;6158201;28;20019;-80
2021/08/22 06:26:50;;;;;;;7.40;5.68;;;18.10;99.90;;;;;;6175027;28;20023;-80
2021/08/22 06:29:51;;;;;;;7.13;6.25;;;18.10;99.90;;;;;;6174994;28;20139;-78
2021/08/22 06:32:52;;;;;;;8.15;5.72;;;18.50;99.90;;;;;;6157737;28;20122;-80
2021/08/22 06:35:59;;;;;;;7.03;5.05;;;18.30;99.90;;;;;;6175028;28;20022;-79
2021/08/22 06:38:59;;;;;;;7.18;5.78;;;18.40;99.90;;;;;;6175058;28;20054;-80
2021/08/22 06:42:00;;;;;;;6.72;5.38;;;18.30;99.90;;;;;;6157874;28;20046;-79
2021/08/22 06:45:00;;;;;;;7.53;5.25;;;18.70;99.90;;;;;;6174822;28;20453;-81
2021/08/22 06:48:01;;;;;;;6.55;5.38;;;18.70;99.90;;;;;;6174898;28;20027;-78
2021/08/22 06:51:02;;;;;;;7.95;5.35;;;18.50;99.90;;;;;;6174778;28;20030;-78
2021/08/22 06:54:03;;;;;;;9.90;5.90;;;18.60;99.90;;;;;;6157414;28;20019;-80
2021/08/22 06:57:04;;;;;;;8.52;5.63;;;18.60;99.90;;;;;;6157594;28;20101;-83
2021/08/22 07:00:05;;;;;;;7.05;5.78;;;18.70;99.90;;;;;;6174494;28;20468;-78
2021/08/22 07:03:07;;;;;;;7.20;5.37;;;18.70;99.90;;;;;;6157285;28;20464;-79
2021/08/22 07:06:08;;;;;;;;;;;18.80;99.90;;;;;;6157950;28;20364;-81
2021/08/22 07:09:08;;;;;;;5.80;5.15;;;18.90;99.90;;;;;;6157210;28;19906;-83
2021/08/22 07:12:09;;;;;;;6.30;5.10;;;19.30;99.90;;;;;;6174465;28;20182;-80
2021/08/22 07:15:11;;;;;;;7.70;5.30;;;19.20;99.90;;;;;;6141272;28;20050;-80
2021/08/22 07:18:12;;;;;;;6.00;5.22;;;19.60;99.90;;;;;;6157266;28;20027;-80
2021/08/22 07:21:12;;;;;;;6.55;5.22;;;19.40;99.90;;;;;;6174262;28;20045;-81
2021/08/22 07:24:13;;;;;;;6.80;5.40;;;19.60;99.90;;;;;;6141340;28;20114;-78
2021/08/22 07:27:14;;;;;;;7.35;5.25;;;19.40;99.90;;;;;;6174553;28;20058;-80
2021/08/22 07:30:15;;;;;;;6.05;5.43;;;19.40;99.90;;;;;;6174385;28;20457;-78
2021/08/22 07:33:15;;;;;;;6.63;5.23;;;19.20;99.90;;;;;;6174043;28;20093;-79
2021/08/22 07:36:16;;;;;;;6.18;5.57;;;19.30;99.90;;;;;;6156992;28;20246;-81
2021/08/22 07:39:17;;;;;;;6.25;5.15;;;;;;;;;;6173911;28;20062;-80
2021/08/22 07:42:18;;;;;;;8.25;5.38;;;19.40;99.90;;;;;;6157109;28;20015;-81
2021/08/22 07:45:19;;;;;;;6.45;5.78;;;19.40;99.90;;;;;;6157653;28;20026;-80
2021/08/22 07:48:19;;;;;;;7.57;5.65;;;19.40;99.90;;;;;;6174447;28;20045;-80
2021/08/22 07:51:21;;;;;;;8.55;5.22;;;19.20;99.90;;;;;;6174373;28;20506;-82
2021/08/22 07:54:22;;;;;;;6.47;5.80;;;19.50;99.90;;;;;;6174008;28;20025;-82
2021/08/22 07:57:22;;;;;;;7.80;5.50;;;19.50;99.90;;;;;;6156880;28;20450;-81
2021/08/22 08:00:23;;;;;;;8.93;5.78;;;19.50;99.90;;;;;;6173998;28;20070;-82
2021/08/22 08:03:23;;;;;;;6.10;5.40;;;19.40;99.90;;;;;;6157026;28;20019;-79
2021/08/22 08:06:24;;;;;;;7.90;5.63;;;19.40;99.90;;;;;;6143468;28;20030;-81
2021/08/22 08:09:25;;;;;;;6.65;5.55;;;;;;;;;;6161084;28;20029;-80
2021/08/22 08:12:27;;;;;;;8.43;6.13;;;19.40;99.90;;;;;;6178284;28;20027;-79
2021/08/22 08:15:28;;;;;;;7.32;5.50;;;19.40;99.90;;;;;;6161154;28;20023;-80
2021/08/22 08:18:30;;;;;;;9.32;6.53;;;19.50;99.90;;;;;;6161031;28;20413;-80
2021/08/22 08:21:30;;;;;;;;;;;19.60;99.90;;;;;;6178116;28;20515;-79
2021/08/22 08:24:31;;;;;;;7.45;6.20;;;19.70;99.90;;;;;;6160758;28;19902;-81
2021/08/22 08:27:31;;;;;;;9.35;5.68;;;19.70;99.90;;;;;;6160349;28;20038;-79
2021/08/22 08:30:33;;;;;;;7.05;6.35;;;19.70;99.90;;;;;;6144370;28;20022;-82
2021/08/22 08:33:35;;;;;;;;;;;19.70;99.90;;;;;;6144573;28;20034;-81
2021/08/22 08:36:36;;;;;;;9.20;6.90;;;;;;;;;;6144408;28;19906;-79
2021/08/22 08:39:37;;;;;;;7.05;6.35;;;19.80;99.90;;;;;;6143805;28;20456;-80
2021/08/22 08:42:53;;;;;;;6.57;5.88;;;19.90;99.90;;;;;;6144221;28;20031;-80
2021/08/22 08:45:59;;;;;;;7.72;5.85;;;20.00;99.90;;;;;;6161246;28;20106;-81
2021/08/22 08:49:24;;;;;;;7.38;5.90;;;20.00;99.90;;;;;;6177638;28;20062;-79
2021/08/22 08:52:30;;;;;;;7.78;6.00;;;19.90;99.90;;;;;;6177141;28;20368;-79
2021/08/22 08:55:48;;;;;;;6.53;5.72;;;19.90;99.90;;;;;;6177345;28;20463;-81
2021/08/22 08:58:49;;;;;;;6.55;5.72;;;19.80;99.90;;;;;;6144062;28;20038;-80
2021/08/22 09:01:52;;;;;;;7.45;5.97;;;19.80;99.90;;;;;;6160006;28;20102;-82
2021/08/22 09:05:02;;;;;;;7.63;6.43;;;19.90;99.90;;;;;;6177596;28;20023;-82
2021/08/22 09:08:40;;;;;;;7.40;5.90;;;19.80;99.90;;;;;;6177540;28;20033;-81
2021/08/22 09:11:44;;;;;;;6.80;5.90;;;19.90;99.90;;;;;;6176909;28;20085;-82
2021/08/22 09:15:12;;;;;;;6.93;5.85;;;19.90;99.90;;;;;;6177002;28;20026;-80
2021/08/22 09:18:56;;;;;;;8.57;6.03;;;19.90;99.90;;;;;;6159162;28;20023;-79
2021/08/22 09:22:24;;;;;;;6.20;5.57;;;19.90;99.90;;;;;;6176740;28;20027;-79
2021/08/22 09:26:01;;;;;;;5.82;5.15;;;20.00;99.90;;;;;;6176691;28;20026;-80
2021/08/22 09:29:24;;;;;;;6.75;5.18;;;20.10;99.90;;;;;;6159411;28;20057;-80
2021/08/22 09:33:02;;;;;;;6.53;5.50;;;20.20;99.90;;;;;;6158865;28;20022;-78
2021/08/22 09:36:03;;;;;;;6.78;4.85;;;20.20;99.90;;;;;;6176147;28;20038;-78
2021/08/22 09:39:28;;;;;;;6.28;4.80;;;20.20;99.90;;;;;;6175811;28;20054;-78
2021/08/22 09:42:47;;;;;;;5.63;4.47;;;20.10;99.90;;;;;;6176099;28;20102;-79
2021/08/22 09:46:26;;;;;;;5.22;4.30;;;20.30;99.90;;;;;;6176190;28;20034;-79
2021/08/22 09:49:58;;;;;;;5.15;4.22;;;20.10;99.90;;;;;;6175806;28;20030;-78
2021/08/22 09:53:30;;;;;;;4.72;3.88;;;20.20;99.90;;;;;;6158729;28;20030;-78
2021/08/22 09:57:08;;;;;;;6.68;4.30;;;20.20;99.90;;;;;;6175916;28;20476;-79
2021/08/22 10:00:46;;;;;;;5.30;4.20;;;20.10;99.90;;;;;;6158139;28;20484;-81
2021/08/22 10:04:13;;;;;;;5.70;4.20;;;20.10;99.90;;;;;;6158489;28;20037;-80
2021/08/22 10:07:20;;;;;;;4.80;4.20;;;20.10;99.90;;;;;;6142605;28;20049;-80
2021/08/22 10:10:42;;;;;;;5.35;4.03;;;20.20;99.90;;;;;;6175338;28;20034;-79
2021/08/22 10:13:43;;;;;;;4.80;3.92;;;20.20;99.90;;;;;;6158755;28;20775;-80
2021/08/22 10:16:48;;;;;;;4.57;3.85;;;20.00;99.90;;;;;;6158140;28;20031;-80
2021/08/22 10:19:50;;;;;;;4.10;3.55;;;20.10;99.90;;;;;;6142002;28;20038;-83
2021/08/22 10:22:53;;;;;;;4.00;3.60;;;20.00;99.90;;;;;;6141887;28;20034;-79
2021/08/22 10:25:55;;;;;;;4.50;3.55;;;20.00;99.90;;;;;;6158257;28;20416;-81
2021/08/22 10:29:00;;;;;;;4.35;3.30;;;20.10;99.90;;;;;;6157754;28;20461;-80
2021/08/22 10:32:02;;;;;;;3.92;3.25;;;20.10;99.90;;;;;;6157579;28;20038;-78
2021/08/22 10:35:15;;;;;;;4.15;3.08;;;20.20;99.90;;;;;;6142138;28;20496;-79
2021/08/22 10:38:23;;;;;;;4.10;3.67;;;20.10;99.90;;;;;;6174500;28;20042;-80
2021/08/22 10:41:40;;;;;;;4.70;3.10;;;20.00;99.90;;;;;;6157804;28;20035;-79
2021/08/22 10:44:42;;;;;;;4.10;3.70;;;20.20;99.90;;;;;;6157877;28;20062;-81
2021/08/22 10:47:43;;;;;;;4.80;3.50;;;20.20;99.90;;;;;;6157881;28;20133;-79
2021/08/22 10:51:11;;;;;;;4.10;3.50;;;20.30;99.90;;;;;;6175261;28;20027;-80
2021/08/22 10:54:15;;;;;;;3.45;2.90;;;20.70;99.90;;;;;;6172393;28;20031;-80
2021/08/22 10:57:51;;;;;;;4.38;3.38;;;20.90;99.90;;;;;;6141697;28;20019;-78
2021/08/22 11:01:16;;;;;;;4.40;3.10;;;21.10;99.90;;;;;;6084832;29;20456;-78
2021/08/22 11:04:17;;;;;;;3.20;2.90;;;21.10;99.90;;;;;;6087502;29;20020;-79
2021/08/22 11:07:23;;;;;;;3.75;3.22;;;21.20;99.90;;;;;;6084882;29;20032;-80
2021/08/22 11:10:24;;;;;;;3.63;3.20;;;21.50;99.90;;;;;;6085145;29;20107;-81
2021/08/22 11:13:26;;;;;;;5.20;3.15;;;21.50;99.90;;;;;;6084853;29;20080;-81
2021/08/22 11:16:46;;;;;;;4.55;3.28;;;21.50;99.90;;;;;;6085096;29;20032;-79
2021/08/22 11:19:46;;;;;;;4.05;3.40;;;21.60;99.90;;;;;;6100292;29;20028;-80
2021/08/22 11:22:50;;;;;;;3.30;2.95;;;21.50;99.90;;;;;;6100146;29;20058;-82
2021/08/22 11:26:03;;;;;;;4.50;3.40;;;21.50;99.90;;;;;;6084985;29;20028;-80
2021/08/22 11:29:05;;;;;;;3.83;3.42;;;21.40;99.90;;;;;;6100123;29;20040;-79
2021/08/22 11:32:06;;;;;;;3.85;3.42;;;21.40;99.90;;;;;;6084505;29;20104;-78
2021/08/22 11:35:14;;;;;;;3.97;3.42;;;21.30;99.90;;;;;;6134683;28;20038;-82
2021/08/22 11:38:15;;;;;;;3.78;3.35;;;21.20;99.90;;;;;;6173812;28;20066;-79
2021/08/22 11:41:16;;;;;;;5.63;3.50;;;21.20;99.90;;;;;;6178485;28;20039;-78
2021/08/22 11:44:23;;;;;;;3.83;3.40;;;21.40;99.90;;;;;;6179227;28;20423;-79
2021/08/22 11:47:23;;;;;;;4.43;3.65;;;21.20;99.90;;;;;;6161629;28;20085;-79
2021/08/22 11:50:28;;;;;;;4.97;3.78;;;21.00;99.90;;;;;;6161807;28;20457;-81
2021/08/22 11:53:29;;;;;;;5.30;4.07;;;21.20;99.90;;;;;;6178830;28;20432;-78
2021/08/22 11:56:30;;;;;;;4.32;3.75;;;21.20;99.90;;;;;;6178635;28;20031;-81
2021/08/22 11:59:31;;;;;;;5.07;4.00;;;21.20;99.90;;;;;;6145183;28;20030;-80
2021/08/22 12:02:31;;;;;;;5.93;4.25;;;21.20;99.90;;;;;;6178575;28;20081;-78
2021/08/22 12:05:34;;;;;;;4.20;3.40;;;21.40;99.90;;;;;;6160847;28;20027;-80
2021/08/22 12:08:36;;;;;;;5.28;3.80;;;21.60;99.90;;;;;;6178366;28;20058;-79
2021/08/22 12:11:37;;;;;;;5.03;3.40;;;21.60;99.90;;;;;;6178397;28;20042;-79
2021/08/22 12:14:38;;;;;;;5.60;3.63;;;21.70;99.90;;;;;;6177925;28;20019;-79
2021/08/22 12:17:38;;;;;;;4.15;3.75;;;21.70;99.90;;;;;;6178131;28;20461;-80
2021/08/22 12:20:39;;;;;;;3.72;3.28;;;21.70;99.90;;;;;;6160626;28;20125;-79
2021/08/22 12:23:40;;;;;;;5.68;3.60;;;21.70;99.90;;;;;;6178283;28;20030;-81
2021/08/22 12:26:48;;;;;;;5.03;4.07;;;21.80;99.90;;;;;;6160413;28;20130;-79
2021/08/22 12:29:49;;;;;;;4.63;3.67;;;21.80;99.90;;;;;;6177913;28;20376;-78
2021/08/22 12:32:50;;;;;;;4.85;3.45;;;22.00;99.90;;;;;;6160009;28;20038;-79
2021/08/22 12:36:13;;;;;;;5.28;3.30;;;22.10;99.90;;;;;;6144511;28;20038;-79
2021/08/22 12:39:18;;;;;;;3.67;3.20;;;22.30;99.90;;;;;;6160497;28;20054;-81
2021/08/22 12:42:19;;;;;;;6.03;3.65;;;22.50;99.90;;;;;;6144199;28;20014;-80
2021/08/22 12:45:20;;;;;;;5.47;3.60;;;22.60;99.90;;;;;;6177181;28;20027;-80
2021/08/22 12:48:20;;;;;;;4.55;3.47;;;22.70;99.90;;;;;;6177620;28;20531;-81
2021/08/22 12:51:21;;;;;;;5.07;3.42;;;23.00;99.90;;;;;;6176632;28;20175;-79
2021/08/22 12:54:23;;;;;;;4.70;3.63;;;22.70;99.90;;;;;;6160428;28;20446;-81
2021/08/22 12:57:24;;;;;;;4.78;4.15;;;22.60;99.90;;;;;;6160089;28;20491;-77
2021/08/22 13:00:25;;;;;;;4.13;3.60;;;22.50;99.90;;;;;;6159702;28;20114;-78
2021/08/22 13:03:25;;;;;;;3.88;3.40;;;22.70;99.90;;;;;;6177253;28;20027;-81
2021/08/22 13:06:26;;;;;;;4.10;3.65;;;22.60;99.90;;;;;;6176993;28;20364;-80
2021/08/22 13:09:27;;;;;;;3.97;3.40;;;22.30;99.90;;;;;;6177013;28;20027;-79
2021/08/22 13:12:27;;;;;;;4.50;3.80;;;22.30;99.90;;;;;;6143684;28;20035;-81
2021/08/22 13:15:28;;;;;;;4.38;3.80;;;22.20;99.90;;;;;;6177399;28;20115;-80
2021/08/22 13:18:34;;;;;;;4.22;3.60;;;22.30;99.90;;;;;;6176847;28;20412;-79
2021/08/22 13:21:35;;;;;;;4.78;3.90;;;22.30;99.90;;;;;;6176554;28;20046;-79
2021/08/22 13:24:35;;;;;;;5.05;3.88;;;22.50;99.90;;;;;;6176717;28;20093;-78
2021/08/22 13:27:36;;;;;;;4.72;4.03;;;22.80;99.90;;;;;;6158983;28;20476;-79
2021/08/22 13:30:37;;;;;;;4.88;3.60;;;23.00;99.90;;;;;;6176359;28;20041;-79
2021/08/22 13:33:38;;;;;;;6.13;4.20;;;23.00;99.90;;;;;;6176068;28;20026;-80
2021/08/22 13:36:39;;;;;;;4.55;4.05;;;22.90;99.90;;;;;;6176481;28;20089;-80
2021/08/22 13:39:39;;;;;;;4.72;4.00;;;22.80;99.90;;;;;;6175763;28;20437;-79
2021/08/22 13:42:40;;;;;;;4.43;3.80;;;;;;;;;;6159049;28;20166;-78
2021/08/22 13:45:41;;;;;;;4.50;3.80;;;22.30;99.90;;;;;;6158856;28;20473;-78
2021/08/22 13:48:42;;;;;;;4.68;4.18;;;22.40;99.90;;;;;;6158610;28;20023;-78
2021/08/22 13:51:42;;;;;;;5.18;3.95;;;22.40;99.90;;;;;;6176284;28;20033;-83
2021/08/22 13:54:43;;;;;;;5.57;4.18;;;22.40;99.90;;;;;;6176084;28;20061;-80
2021/08/22 13:57:43;;;;;;;4.50;3.83;;;22.30;99.90;;;;;;6175670;28;20050;-79
2021/08/22 14:00:44;;;;;;;5.97;4.05;;;;;;;;;;6175726;28;20454;-80
2021/08/22 14:03:45;;;;;;;6.40;4.20;;;22.10;99.90;;;;;;6174631;28;20166;-81
2021/08/22 14:06:46;;;;;;;4.18;3.75;;;22.00;99.90;;;;;;6175321;28;20023;-81
2021/08/22 14:09:46;;;;;;;6.97;4.38;;;21.80;99.90;;;;;;6175387;28;20454;-78
2021/08/22 14:12:47;;;;;;;6.78;4.38;;;21.80;99.90;;;;;;6158197;28;20432;-78
2021/08/22 14:15:47;;;;;;;5.30;4.30;;;21.90;99.90;;;;;;6175460;28;20027;-80
2021/08/22 14:18:51;;;;;;;7.20;4.53;;;21.70;99.90;;;;;;6175042;28;20027;-80
2021/08/22 14:21:51;;;;;;;5.15;4.20;;;21.70;99.90;;;;;;6174960;28;20492;-79
2021/08/22 14:24:52;;;;;;;6.10;4.72;;;21.60;99.90;;;;;;6157914;28;20023;-78
2021/08/22 14:27:53;;;;;;;9.77;4.70;;;21.50;99.90;;;;;;6175220;28;20022;-79
2021/08/22 14:30:53;;;;;;;7.35;4.60;;;21.60;99.90;;;;;;6175164;28;20047;-79
2021/08/22 14:33:54;;;;;;;7.82;4.78;;;;;;;;;;6175141;28;20113;-81
2021/08/22 14:36:55;;;;;;;7.45;4.75;;;20.80;99.90;;;;;;6157328;28;20385;-80
2021/08/22 14:39:56;;;;;;;6.05;4.65;;;20.60;99.90;;;;;;6175044;28;20039;-79
2021/08/22 14:42:56;;;;;;;5.93;4.63;;;20.50;99.90;;;;;;6174961;28;20034;-80
2021/08/22 14:45:57;;;;;;;8.90;5.32;;;;;;;;;;6157751;28;20042;-80
2021/08/22 14:48:59;;;;;;;5.68;4.93;;;20.50;99.90;;;;;;6175256;28;20106;-80
2021/08/22 14:52:00;;;;;;;6.57;4.60;;;20.50;99.90;;;;;;6157823;28;20074;-77
2021/08/22 14:55:00;;;;;;;6.97;4.97;;;20.50;99.90;;;;;;6157395;28;20027;-81
2021/08/22 14:58:01;;;;;;;4.72;4.07;;;20.30;99.90;;;;;;6157561;28;20031;-80
2021/08/22 15:01:05;;;;;;;4.78;3.75;;;20.30;99.90;;;;;;6174678;28;20078;-79
2021/08/22 15:04:06;;;;;;;6.68;3.90;;;20.10;99.90;;;;;;6157765;28;20457;-82
2021/08/22 15:07:07;;;;;;;4.37;3.77;;;19.80;99.90;;;;;;6141499;28;20111;-78
2021/08/22 15:10:08;;;;;;;5.57;3.78;;;19.70;99.90;;;;;;6157436;28;20403;-80
2021/08/22 15:13:09;;;;;;;4.28;3.72;;;19.50;99.90;;;;;;6174375;28;20030;-79
2021/08/22 15:16:10;;;;;;;5.25;3.90;;;19.30;99.90;;;;;;6145903;28;20125;-79
2021/08/22 15:19:11;;;;;;;4.28;3.70;;;19.10;99.90;;;;;;6162118;28;20023;-79
2021/08/22 15:22:13;;;;;;;4.10;3.45;;;19.10;99.90;;;;;;6179141;28;20023;-79
2021/08/22 15:25:13;;;;;;;4.07;3.60;;;19.20;99.90;;;;;;6179655;28;20027;-78
2021/08/22 15:28:14;;;;;;;4.22;3.67;;;19.20;99.90;;;;;;6161765;28;20027;-81
2021/08/22 15:31:14;;;;;;;4.05;3.58;;;19.10;99.90;;;;;;6179041;28;20106;-80
2021/08/22 15:34:15;;;;;;;5.03;3.85;;;19.20;99.90;;;;;;6161926;28;20046;-80
2021/08/22 15:37:16;;;;;;;4.70;3.70;;;19.30;99.90;;;;;;6178966;28;20047;-81
2021/08/22 15:40:18;;;;;;;4.05;3.30;;;19.50;99.90;;;;;;6179013;28;20089;-81
2021/08/22 15:43:19;;;;;;;5.32;3.60;;;19.50;99.90;;;;;;6161773;28;20383;-78
2021/08/22 15:46:19;;;;;;;4.95;3.95;;;19.60;99.90;;;;;;6161734;28;20027;-82
2021/08/22 15:49:20;;;;;;;4.80;3.60;;;19.70;99.90;;;;;;6178401;28;20065;-80
2021/08/22 15:52:21;;;;;;;5.18;4.35;;;19.90;99.90;;;;;;6178681;28;20023;-78
2021/08/22 15:55:22;;;;;;;4.15;3.67;;;19.70;99.90;;;;;;6161240;28;20030;-79
2021/08/22 15:58:22;;;;;;;5.03;3.80;;;19.80;99.90;;;;;;6161321;28;20030;-78
2021/08/22 16:01:23;;;;;;;4.82;3.67;;;19.70;99.90;;;;;;6160923;28;20038;-80
2021/08/22 16:04:23;;;;;;;5.22;3.60;;;19.70;99.90;;;;;;6145193;28;20023;-81